sensor_id;sensor_type;location;lat;lon;timestamp;pressure;altitude;pressure_sealevel;temperature;humidity
76519;BME280;67029;51.054;13.798;2023-04-03T00:01:43;101374.95;;;8.04;47.11
76519;BME280;67029;51.054;13.798;2023-04-03T00:04:13;101381.86;;;8.03;46.80
76519;BME280;67029;51.054;13.798;2023-04-03T00:06:43;101378.77;;;7.99;46.82
76519;BME280;67029;51.054;13.798;2023-04-03T00:09:13;101386.62;;;7.95;46.78
76519;BME280;67029;51.054;13.798;2023-04-03T00:11:43;101389.95;;;7.93;47.00
76519;BME280;67029;51.054;13.798;2023-04-03T00:14:13;101391.14;;;7.93;46.93
76519;BME280;67029;51.054;13.798;2023-04-03T00:16:43;101400.56;;;7.87;47.01
76519;BME280;67029;51.054;13.798;2023-04-03T00:19:13;101403.92;;;7.87;46.87
76519;BME280;67029;51.054;13.798;2023-04-03T00:21:43;101408.75;;;7.90;46.96
76519;BME280;67029;51.054;13.798;2023-04-03T00:24:13;101410.85;;;7.89;46.92
76519;BME280;67029;51.054;13.798;2023-04-03T00:26:43;101413.55;;;7.90;46.60
76519;BME280;67029;51.054;13.798;2023-04-03T00:29:13;101419.19;;;7.89;46.80
76519;BME280;67029;51.054;13.798;2023-04-03T00:31:43;101421.54;;;7.89;46.88
76519;BME280;67029;51.054;13.798;2023-04-03T00:34:13;101425.47;;;7.88;46.81
76519;BME280;67029;51.054;13.798;2023-04-03T00:36:43;101426.36;;;7.86;46.91
76519;BME280;67029;51.054;13.798;2023-04-03T00:39:13;101426.86;;;7.86;46.79
76519;BME280;67029;51.054;13.798;2023-04-03T00:41:43;101429.27;;;7.84;46.73
76519;BME280;67029;51.054;13.798;2023-04-03T00:46:43;101429.91;;;7.82;46.55
76519;BME280;67029;51.054;13.798;2023-04-03T00:49:13;101432.45;;;7.76;46.75
76519;BME280;67029;51.054;13.798;2023-04-03T00:51:44;101426.50;;;7.74;46.72
76519;BME280;67029;51.054;13.798;2023-04-03T00:54:14;101430.48;;;7.69;46.94
76519;BME280;67029;51.054;13.798;2023-04-03T00:56:44;101429.57;;;7.65;47.08
76519;BME280;67029;51.054;13.798;2023-04-03T00:59:17;101429.00;;;7.59;47.20
76519;BME280;67029;51.054;13.798;2023-04-03T01:01:45;101436.60;;;7.63;47.10
76519;BME280;67029;51.054;13.798;2023-04-03T01:04:29;101434.25;;;7.63;47.17
76519;BME280;67029;51.054;13.798;2023-04-03T01:06:46;101437.70;;;7.62;47.12
76519;BME280;67029;51.054;13.798;2023-04-03T01:09:16;101441.23;;;7.62;47.16
76519;BME280;67029;51.054;13.798;2023-04-03T01:11:46;101438.41;;;7.64;47.15
76519;BME280;67029;51.054;13.798;2023-04-03T01:14:16;101444.02;;;7.60;47.20
76519;BME280;67029;51.054;13.798;2023-04-03T01:16:53;101449.92;;;7.54;47.23
76519;BME280;67029;51.054;13.798;2023-04-03T01:19:17;101448.91;;;7.53;47.23
76519;BME280;67029;51.054;13.798;2023-04-03T01:26:48;101455.94;;;7.41;47.22
76519;BME280;67029;51.054;13.798;2023-04-03T01:29:17;101459.44;;;7.35;47.28
76519;BME280;67029;51.054;13.798;2023-04-03T01:31:55;101459.87;;;7.36;46.97
76519;BME280;67029;51.054;13.798;2023-04-03T01:34:18;101460.45;;;7.35;47.05
76519;BME280;67029;51.054;13.798;2023-04-03T01:36:48;101469.21;;;7.32;46.83
76519;BME280;67029;51.054;13.798;2023-04-03T01:39:19;101466.33;;;7.26;47.09
76519;BME280;67029;51.054;13.798;2023-04-03T01:41:50;101470.95;;;7.26;47.12
76519;BME280;67029;51.054;13.798;2023-04-03T01:44:20;101470.98;;;7.28;46.97
76519;BME280;67029;51.054;13.798;2023-04-03T01:46:50;101472.71;;;7.26;47.09
76519;BME280;67029;51.054;13.798;2023-04-03T01:49:20;101475.27;;;7.27;46.70
76519;BME280;67029;51.054;13.798;2023-04-03T01:51:50;101481.75;;;7.22;46.75
76519;BME280;67029;51.054;13.798;2023-04-03T01:54:20;101485.30;;;7.19;46.80
76519;BME280;67029;51.054;13.798;2023-04-03T01:56:50;101489.33;;;7.18;46.83
76519;BME280;67029;51.054;13.798;2023-04-03T01:59:20;101486.17;;;7.16;46.90
76519;BME280;67029;51.054;13.798;2023-04-03T02:01:50;101487.56;;;7.14;47.01
76519;BME280;67029;51.054;13.798;2023-04-03T02:04:20;101491.98;;;7.13;46.92
76519;BME280;67029;51.054;13.798;2023-04-03T02:06:50;101494.05;;;7.11;46.83
76519;BME280;67029;51.054;13.798;2023-04-03T02:09:20;101497.12;;;7.09;46.58
76519;BME280;67029;51.054;13.798;2023-04-03T02:11:50;101498.55;;;7.04;46.58
76519;BME280;67029;51.054;13.798;2023-04-03T02:14:20;101500.02;;;6.99;46.66
76519;BME280;67029;51.054;13.798;2023-04-03T02:16:50;101499.64;;;6.95;46.52
76519;BME280;67029;51.054;13.798;2023-04-03T02:19:20;101502.12;;;6.91;46.64
76519;BME280;67029;51.054;13.798;2023-04-03T02:21:50;101506.33;;;6.86;46.92
76519;BME280;67029;51.054;13.798;2023-04-03T02:24:20;101503.52;;;6.81;46.94
76519;BME280;67029;51.054;13.798;2023-04-03T02:26:50;101504.18;;;6.68;47.03
76519;BME280;67029;51.054;13.798;2023-04-03T02:29:20;101506.11;;;6.67;47.04
76519;BME280;67029;51.054;13.798;2023-04-03T02:31:50;101505.02;;;6.67;46.96
76519;BME280;67029;51.054;13.798;2023-04-03T02:34:20;101513.96;;;6.66;47.04
76519;BME280;67029;51.054;13.798;2023-04-03T02:36:50;101515.97;;;6.64;47.10
76519;BME280;67029;51.054;13.798;2023-04-03T02:39:20;101520.62;;;6.63;47.15
76519;BME280;67029;51.054;13.798;2023-04-03T02:41:50;101517.73;;;6.61;47.16
76519;BME280;67029;51.054;13.798;2023-04-03T02:44:20;101520.50;;;6.57;47.21
76519;BME280;67029;51.054;13.798;2023-04-03T02:46:50;101526.54;;;6.56;47.29
76519;BME280;67029;51.054;13.798;2023-04-03T02:49:20;101528.59;;;6.55;47.28
76519;BME280;67029;51.054;13.798;2023-04-03T02:51:50;101527.30;;;6.53;47.24
76519;BME280;67029;51.054;13.798;2023-04-03T02:54:20;101530.19;;;6.50;47.15
76519;BME280;67029;51.054;13.798;2023-04-03T02:56:50;101529.00;;;6.47;47.01
76519;BME280;67029;51.054;13.798;2023-04-03T02:59:20;101530.45;;;6.40;47.13
76519;BME280;67029;51.054;13.798;2023-04-03T03:01:50;101532.16;;;6.35;47.21
76519;BME280;67029;51.054;13.798;2023-04-03T03:04:21;101532.06;;;6.30;47.27
76519;BME280;67029;51.054;13.798;2023-04-03T03:06:51;101533.73;;;6.26;47.33
76519;BME280;67029;51.054;13.798;2023-04-03T03:09:21;101530.53;;;6.21;47.42
76519;BME280;67029;51.054;13.798;2023-04-03T03:11:51;101538.23;;;6.17;47.41
76519;BME280;67029;51.054;13.798;2023-04-03T03:14:21;101546.10;;;6.12;47.34
76519;BME280;67029;51.054;13.798;2023-04-03T03:16:51;101549.30;;;6.03;47.49
76519;BME280;67029;51.054;13.798;2023-04-03T03:19:21;101545.20;;;5.94;47.53
76519;BME280;67029;51.054;13.798;2023-04-03T03:21:51;101552.02;;;5.88;47.64
76519;BME280;67029;51.054;13.798;2023-04-03T03:24:21;101545.10;;;5.81;47.74
76519;BME280;67029;51.054;13.798;2023-04-03T03:26:51;101548.50;;;5.75;47.88
76519;BME280;67029;51.054;13.798;2023-04-03T03:29:21;101549.48;;;5.71;47.95
76519;BME280;67029;51.054;13.798;2023-04-03T03:31:51;101549.01;;;5.66;48.03
76519;BME280;67029;51.054;13.798;2023-04-03T03:34:21;101543.16;;;5.62;48.11
76519;BME280;67029;51.054;13.798;2023-04-03T03:36:51;101549.34;;;5.53;48.23
76519;BME280;67029;51.054;13.798;2023-04-03T03:39:21;101551.95;;;5.47;48.45
76519;BME280;67029;51.054;13.798;2023-04-03T03:41:51;101550.36;;;5.41;48.49
76519;BME280;67029;51.054;13.798;2023-04-03T03:44:21;101555.12;;;5.34;48.55
76519;BME280;67029;51.054;13.798;2023-04-03T03:46:51;101557.71;;;5.31;48.77
76519;BME280;67029;51.054;13.798;2023-04-03T03:49:22;101559.82;;;5.28;48.84
76519;BME280;67029;51.054;13.798;2023-04-03T03:51:52;101562.22;;;5.24;48.87
76519;BME280;67029;51.054;13.798;2023-04-03T03:54:22;101559.97;;;5.21;48.93
76519;BME280;67029;51.054;13.798;2023-04-03T03:56:52;101559.28;;;5.18;49.02
76519;BME280;67029;51.054;13.798;2023-04-03T03:59:22;101560.48;;;5.16;49.05
76519;BME280;67029;51.054;13.798;2023-04-03T04:01:52;101560.81;;;5.10;49.08
76519;BME280;67029;51.054;13.798;2023-04-03T04:04:22;101563.67;;;5.07;49.18
76519;BME280;67029;51.054;13.798;2023-04-03T04:06:52;101558.34;;;5.05;49.24
76519;BME280;67029;51.054;13.798;2023-04-03T04:09:22;101562.46;;;5.02;49.27
76519;BME280;67029;51.054;13.798;2023-04-03T04:11:52;101560.16;;;4.98;49.47
76519;BME280;67029;51.054;13.798;2023-04-03T04:14:22;101564.60;;;4.93;49.48
76519;BME280;67029;51.054;13.798;2023-04-03T04:16:52;101575.36;;;4.88;49.50
76519;BME280;67029;51.054;13.798;2023-04-03T04:19:22;101571.50;;;4.83;49.66
76519;BME280;67029;51.054;13.798;2023-04-03T04:21:52;101576.97;;;4.81;49.72
76519;BME280;67029;51.054;13.798;2023-04-03T04:24:22;101579.48;;;4.77;49.91
76519;BME280;67029;51.054;13.798;2023-04-03T04:26:52;101585.22;;;4.73;49.91
76519;BME280;67029;51.054;13.798;2023-04-03T04:29:22;101586.42;;;4.71;50.02
76519;BME280;67029;51.054;13.798;2023-04-03T04:31:52;101589.48;;;4.68;50.03
76519;BME280;67029;51.054;13.798;2023-04-03T04:34:22;101591.80;;;4.64;50.04
76519;BME280;67029;51.054;13.798;2023-04-03T04:36:52;101592.89;;;4.62;50.20
76519;BME280;67029;51.054;13.798;2023-04-03T04:39:22;101597.69;;;4.60;50.25
76519;BME280;67029;51.054;13.798;2023-04-03T04:41:52;101601.87;;;4.51;50.28
76519;BME280;67029;51.054;13.798;2023-04-03T04:44:22;101600.88;;;4.50;50.58
76519;BME280;67029;51.054;13.798;2023-04-03T04:46:53;101604.77;;;4.42;50.62
76519;BME280;67029;51.054;13.798;2023-04-03T04:49:22;101608.27;;;4.37;50.64
76519;BME280;67029;51.054;13.798;2023-04-03T04:51:53;101607.72;;;4.30;50.85
76519;BME280;67029;51.054;13.798;2023-04-03T04:54:23;101608.82;;;4.31;51.26
76519;BME280;67029;51.054;13.798;2023-04-03T04:56:53;101613.14;;;4.25;51.31
76519;BME280;67029;51.054;13.798;2023-04-03T04:59:23;101616.39;;;4.24;51.63
76519;BME280;67029;51.054;13.798;2023-04-03T05:01:53;101625.31;;;4.21;51.74
76519;BME280;67029;51.054;13.798;2023-04-03T05:04:23;101623.45;;;4.20;51.93
76519;BME280;67029;51.054;13.798;2023-04-03T05:06:53;101626.17;;;4.17;51.80
76519;BME280;67029;51.054;13.798;2023-04-03T05:09:23;101624.05;;;4.18;51.77
76519;BME280;67029;51.054;13.798;2023-04-03T05:11:53;101628.16;;;4.21;51.96
76519;BME280;67029;51.054;13.798;2023-04-03T05:14:23;101628.53;;;4.22;52.00
76519;BME280;67029;51.054;13.798;2023-04-03T05:16:53;101630.45;;;4.24;52.08
76519;BME280;67029;51.054;13.798;2023-04-03T05:19:23;101627.98;;;4.28;52.25
76519;BME280;67029;51.054;13.798;2023-04-03T05:21:53;101632.22;;;4.32;52.23
76519;BME280;67029;51.054;13.798;2023-04-03T05:24:23;101633.45;;;4.34;52.16
76519;BME280;67029;51.054;13.798;2023-04-03T05:26:53;101633.14;;;4.38;52.09
76519;BME280;67029;51.054;13.798;2023-04-03T05:29:23;101634.73;;;4.42;52.27
76519;BME280;67029;51.054;13.798;2023-04-03T05:31:53;101635.19;;;4.49;52.16
76519;BME280;67029;51.054;13.798;2023-04-03T05:34:23;101637.62;;;4.52;52.17
76519;BME280;67029;51.054;13.798;2023-04-03T05:36:53;101637.44;;;4.59;52.25
76519;BME280;67029;51.054;13.798;2023-04-03T05:39:23;101638.81;;;4.65;52.16
76519;BME280;67029;51.054;13.798;2023-04-03T05:41:53;101642.91;;;4.68;52.08
76519;BME280;67029;51.054;13.798;2023-04-03T05:44:23;101641.38;;;4.78;52.20
76519;BME280;67029;51.054;13.798;2023-04-03T05:46:53;101645.69;;;4.77;52.15
76519;BME280;67029;51.054;13.798;2023-04-03T05:49:23;101644.26;;;4.77;52.14
76519;BME280;67029;51.054;13.798;2023-04-03T05:51:53;101645.76;;;4.84;52.29
76519;BME280;67029;51.054;13.798;2023-04-03T05:54:30;101643.34;;;4.90;52.19
76519;BME280;67029;51.054;13.798;2023-04-03T05:56:54;101645.50;;;4.96;52.33
76519;BME280;67029;51.054;13.798;2023-04-03T05:59:24;101646.34;;;5.00;52.43
76519;BME280;67029;51.054;13.798;2023-04-03T06:01:54;101645.29;;;5.04;52.88
76519;BME280;67029;51.054;13.798;2023-04-03T06:04:24;101651.55;;;5.15;53.02
76519;BME280;67029;51.054;13.798;2023-04-03T06:06:56;101653.25;;;5.22;52.89
76519;BME280;67029;51.054;13.798;2023-04-03T06:09:26;101650.84;;;5.29;52.71
76519;BME280;67029;51.054;13.798;2023-04-03T06:11:55;101648.73;;;5.37;52.92
76519;BME280;67029;51.054;13.798;2023-04-03T06:14:26;101655.55;;;5.50;52.67
76519;BME280;67029;51.054;13.798;2023-04-03T06:16:56;101656.39;;;5.61;52.24
76519;BME280;67029;51.054;13.798;2023-04-03T06:19:26;101658.88;;;5.64;51.99
76519;BME280;67029;51.054;13.798;2023-04-03T06:21:56;101662.88;;;5.66;52.30
76519;BME280;67029;51.054;13.798;2023-04-03T06:24:26;101661.35;;;5.74;52.13
76519;BME280;67029;51.054;13.798;2023-04-03T06:26:57;101662.41;;;5.82;52.14
76519;BME280;67029;51.054;13.798;2023-04-03T06:29:27;101670.05;;;5.88;52.26
76519;BME280;67029;51.054;13.798;2023-04-03T06:31:57;101666.73;;;5.95;51.59
76519;BME280;67029;51.054;13.798;2023-04-03T06:34:27;101670.44;;;5.98;51.57
76519;BME280;67029;51.054;13.798;2023-04-03T06:36:57;101667.73;;;6.02;51.25
76519;BME280;67029;51.054;13.798;2023-04-03T06:39:27;101667.66;;;6.04;51.33
76519;BME280;67029;51.054;13.798;2023-04-03T06:41:57;101670.87;;;6.08;51.29
76519;BME280;67029;51.054;13.798;2023-04-03T06:44:27;101674.94;;;6.14;51.34
76519;BME280;67029;51.054;13.798;2023-04-03T06:46:57;101678.16;;;6.21;51.13
76519;BME280;67029;51.054;13.798;2023-04-03T06:49:27;101675.30;;;6.28;51.01
76519;BME280;67029;51.054;13.798;2023-04-03T06:51:57;101676.67;;;6.32;50.67
76519;BME280;67029;51.054;13.798;2023-04-03T06:54:27;101680.08;;;6.34;50.25
76519;BME280;67029;51.054;13.798;2023-04-03T06:56:58;101681.38;;;6.33;49.62
76519;BME280;67029;51.054;13.798;2023-04-03T06:59:28;101673.81;;;6.31;49.96
76519;BME280;67029;51.054;13.798;2023-04-03T07:01:58;101680.16;;;6.34;50.26
76519;BME280;67029;51.054;13.798;2023-04-03T07:06:58;101687.45;;;6.78;48.23
76519;BME280;67029;51.054;13.798;2023-04-03T07:09:28;101691.60;;;6.66;48.32
76519;BME280;67029;51.054;13.798;2023-04-03T07:11:58;101692.58;;;6.61;48.49
76519;BME280;67029;51.054;13.798;2023-04-03T07:14:29;101699.16;;;6.55;48.43
76519;BME280;67029;51.054;13.798;2023-04-03T07:16:59;101704.53;;;6.48;48.90
76519;BME280;67029;51.054;13.798;2023-04-03T07:19:29;101701.52;;;6.48;48.86
76519;BME280;67029;51.054;13.798;2023-04-03T07:21:59;101699.09;;;6.49;48.96
76519;BME280;67029;51.054;13.798;2023-04-03T07:24:29;101709.52;;;6.53;48.96
76519;BME280;67029;51.054;13.798;2023-04-03T07:26:59;101705.16;;;6.53;48.64
76519;BME280;67029;51.054;13.798;2023-04-03T07:29:29;101709.74;;;6.55;48.83
76519;BME280;67029;51.054;13.798;2023-04-03T07:31:59;101710.76;;;6.58;48.73
76519;BME280;67029;51.054;13.798;2023-04-03T07:34:29;101714.30;;;6.63;49.00
76519;BME280;67029;51.054;13.798;2023-04-03T07:36:59;101716.53;;;6.71;48.98
76519;BME280;67029;51.054;13.798;2023-04-03T07:39:29;101720.09;;;6.80;48.63
76519;BME280;67029;51.054;13.798;2023-04-03T07:41:59;101720.60;;;6.83;48.48
76519;BME280;67029;51.054;13.798;2023-04-03T07:44:29;101720.62;;;6.87;48.04
76519;BME280;67029;51.054;13.798;2023-04-03T07:46:59;101721.20;;;6.87;48.34
76519;BME280;67029;51.054;13.798;2023-04-03T07:49:29;101724.25;;;6.92;48.05
76519;BME280;67029;51.054;13.798;2023-04-03T07:51:59;101724.52;;;6.96;48.27
76519;BME280;67029;51.054;13.798;2023-04-03T07:54:29;101729.58;;;7.04;48.20
76519;BME280;67029;51.054;13.798;2023-04-03T07:56:59;101724.98;;;7.13;47.75
76519;BME280;67029;51.054;13.798;2023-04-03T07:59:29;101725.33;;;7.17;47.91
76519;BME280;67029;51.054;13.798;2023-04-03T08:01:59;101731.44;;;7.24;48.05
76519;BME280;67029;51.054;13.798;2023-04-03T08:04:29;101727.59;;;7.32;47.11
76519;BME280;67029;51.054;13.798;2023-04-03T08:06:59;101731.45;;;7.32;47.41
76519;BME280;67029;51.054;13.798;2023-04-03T08:09:29;101724.06;;;7.39;47.65
76519;BME280;67029;51.054;13.798;2023-04-03T08:11:59;101726.14;;;7.47;47.76
76519;BME280;67029;51.054;13.798;2023-04-03T08:14:32;101724.84;;;7.56;47.69
76519;BME280;67029;51.054;13.798;2023-04-03T08:17:00;101727.37;;;7.64;47.59
76519;BME280;67029;51.054;13.798;2023-04-03T08:19:31;101727.34;;;7.72;47.38
76519;BME280;67029;51.054;13.798;2023-04-03T08:22:00;101724.01;;;7.81;47.33
76519;BME280;67029;51.054;13.798;2023-04-03T08:24:31;101724.89;;;7.87;47.17
76519;BME280;67029;51.054;13.798;2023-04-03T08:27:01;101724.00;;;7.94;46.98
76519;BME280;67029;51.054;13.798;2023-04-03T08:29:31;101721.77;;;8.00;46.91
76519;BME280;67029;51.054;13.798;2023-04-03T08:32:01;101724.61;;;8.12;46.44
76519;BME280;67029;51.054;13.798;2023-04-03T08:34:31;101722.70;;;8.19;46.34
76519;BME280;67029;51.054;13.798;2023-04-03T08:37:01;101725.89;;;8.27;45.72
76519;BME280;67029;51.054;13.798;2023-04-03T08:39:31;101727.19;;;8.28;45.76
76519;BME280;67029;51.054;13.798;2023-04-03T08:42:07;101730.81;;;8.30;45.75
76519;BME280;67029;51.054;13.798;2023-04-03T08:44:44;101731.86;;;8.31;45.42
76519;BME280;67029;51.054;13.798;2023-04-03T08:49:37;101735.30;;;8.34;45.78
76519;BME280;67029;51.054;13.798;2023-04-03T08:52:11;101732.39;;;8.38;45.55
76519;BME280;67029;51.054;13.798;2023-04-03T08:54:46;101729.08;;;8.43;45.59
76519;BME280;67029;51.054;13.798;2023-04-03T08:57:05;101732.47;;;8.50;45.26
76519;BME280;67029;51.054;13.798;2023-04-03T08:59:36;101734.94;;;8.56;45.29
76519;BME280;67029;51.054;13.798;2023-04-03T09:02:22;101730.41;;;8.62;45.68
76519;BME280;67029;51.054;13.798;2023-04-03T09:04:36;101727.63;;;8.72;45.72
76519;BME280;67029;51.054;13.798;2023-04-03T09:07:16;101730.19;;;8.85;45.36
76519;BME280;67029;51.054;13.798;2023-04-03T09:09:42;101729.34;;;8.96;45.04
76519;BME280;67029;51.054;13.798;2023-04-03T09:12:21;101727.36;;;8.98;44.95
76519;BME280;67029;51.054;13.798;2023-04-03T09:14:57;101726.47;;;9.06;45.13
76519;BME280;67029;51.054;13.798;2023-04-03T09:17:41;101723.78;;;9.18;44.78
76519;BME280;67029;51.054;13.798;2023-04-03T09:19:47;101723.98;;;9.20;44.45
76519;BME280;67029;51.054;13.798;2023-04-03T09:22:26;101724.83;;;9.20;44.39
76519;BME280;67029;51.054;13.798;2023-04-03T09:24:39;101728.45;;;9.14;44.09
76519;BME280;67029;51.054;13.798;2023-04-03T09:27:10;101727.72;;;9.16;43.78
76519;BME280;67029;51.054;13.798;2023-04-03T09:29:42;101724.16;;;9.34;44.04
76519;BME280;67029;51.054;13.798;2023-04-03T09:32:33;101722.63;;;9.57;44.33
76519;BME280;67029;51.054;13.798;2023-04-03T09:34:41;101720.27;;;9.93;44.18
76519;BME280;67029;51.054;13.798;2023-04-03T09:39:53;101711.74;;;10.81;42.46
76519;BME280;67029;51.054;13.798;2023-04-03T09:42:22;101711.09;;;11.21;42.62
76519;BME280;67029;51.054;13.798;2023-04-03T09:44:58;101705.79;;;11.58;41.64
76519;BME280;67029;51.054;13.798;2023-04-03T09:47:28;101706.48;;;12.02;41.57
76519;BME280;67029;51.054;13.798;2023-04-03T09:49:45;101706.94;;;12.32;40.39
76519;BME280;67029;51.054;13.798;2023-04-03T09:52:20;101701.20;;;12.48;39.73
76519;BME280;67029;51.054;13.798;2023-04-03T09:54:45;101703.90;;;12.63;38.75
76519;BME280;67029;51.054;13.798;2023-04-03T09:57:15;101701.19;;;12.74;37.45
76519;BME280;67029;51.054;13.798;2023-04-03T09:59:55;101695.94;;;12.81;38.04
76519;BME280;67029;51.054;13.798;2023-04-03T10:02:22;101690.41;;;12.93;37.37
76519;BME280;67029;51.054;13.798;2023-04-03T10:04:46;101686.56;;;13.06;36.66
76519;BME280;67029;51.054;13.798;2023-04-03T10:07:30;101688.09;;;13.08;36.37
76519;BME280;67029;51.054;13.798;2023-04-03T10:09:54;101683.50;;;13.09;34.20
76519;BME280;67029;51.054;13.798;2023-04-03T10:12:19;101685.14;;;12.98;34.58
76519;BME280;67029;51.054;13.798;2023-04-03T10:14:54;101682.61;;;12.91;35.44
76519;BME280;67029;51.054;13.798;2023-04-03T10:17:46;101682.95;;;12.87;35.48
76519;BME280;67029;51.054;13.798;2023-04-03T10:19:56;101682.97;;;12.71;34.54
76519;BME280;67029;51.054;13.798;2023-04-03T10:22:22;101681.27;;;12.55;34.69
76519;BME280;67029;51.054;13.798;2023-04-03T10:25:04;101681.78;;;12.48;34.97
76519;BME280;67029;51.054;13.798;2023-04-03T10:30:13;101675.00;;;12.50;34.82
76519;BME280;67029;51.054;13.798;2023-04-03T10:35:02;101667.50;;;12.92;34.68
76519;BME280;67029;51.054;13.798;2023-04-03T10:37:30;101668.05;;;13.05;33.86
76519;BME280;67029;51.054;13.798;2023-04-03T10:39:59;101661.97;;;13.36;33.97
76519;BME280;67029;51.054;13.798;2023-04-03T10:42:50;101657.47;;;13.58;31.29
76519;BME280;67029;51.054;13.798;2023-04-03T10:45:30;101659.27;;;13.69;33.08
76519;BME280;67029;51.054;13.798;2023-04-03T10:47:50;101658.56;;;13.90;33.05
76519;BME280;67029;51.054;13.798;2023-04-03T10:50:13;101660.42;;;14.03;31.58
76519;BME280;67029;51.054;13.798;2023-04-03T10:57:26;101656.70;;;14.02;31.35
76519;BME280;67029;51.054;13.798;2023-04-03T11:00:05;101658.52;;;14.09;31.07
76519;BME280;67029;51.054;13.798;2023-04-03T11:02:39;101655.08;;;14.29;31.41
76519;BME280;67029;51.054;13.798;2023-04-03T11:05:01;101643.11;;;14.61;32.04
76519;BME280;67029;51.054;13.798;2023-04-03T11:07:31;101641.34;;;15.09;31.34
76519;BME280;67029;51.054;13.798;2023-04-03T11:10:02;101636.86;;;15.60;30.93
76519;BME280;67029;51.054;13.798;2023-04-03T11:12:46;101637.25;;;15.89;29.09
76519;BME280;67029;51.054;13.798;2023-04-03T11:15:01;101640.12;;;16.03;28.04
76519;BME280;67029;51.054;13.798;2023-04-03T11:17:42;101630.81;;;16.09;29.27
76519;BME280;67029;51.054;13.798;2023-04-03T11:22:33;101630.58;;;15.74;27.75
76519;BME280;67029;51.054;13.798;2023-04-03T11:27:46;101636.42;;;15.42;28.37
76519;BME280;67029;51.054;13.798;2023-04-03T11:30:05;101632.34;;;15.28;27.82
76519;BME280;67029;51.054;13.798;2023-04-03T11:35:05;101629.34;;;14.93;28.05
76519;BME280;67029;51.054;13.798;2023-04-03T11:37:39;101632.16;;;14.76;28.83
76519;BME280;67029;51.054;13.798;2023-04-03T11:40:25;101627.83;;;14.57;27.88
76519;BME280;67029;51.054;13.798;2023-04-03T11:42:37;101629.07;;;14.37;28.95
76519;BME280;67029;51.054;13.798;2023-04-03T11:47:54;101634.88;;;13.98;28.77
76519;BME280;67029;51.054;13.798;2023-04-03T11:50:06;101631.56;;;13.76;28.17
76519;BME280;67029;51.054;13.798;2023-04-03T12:02:38;101626.38;;;13.16;30.06
76519;BME280;67029;51.054;13.798;2023-04-03T12:05:28;101627.67;;;13.06;30.35
76519;BME280;67029;51.054;13.798;2023-04-03T12:07:39;101625.75;;;12.98;30.64
76519;BME280;67029;51.054;13.798;2023-04-03T12:10:16;101630.02;;;12.85;30.55
76519;BME280;67029;51.054;13.798;2023-04-03T12:12:40;101630.53;;;12.76;31.07
76519;BME280;67029;51.054;13.798;2023-04-03T12:17:40;101627.61;;;12.62;30.90
76519;BME280;67029;51.054;13.798;2023-04-03T12:27:43;101623.30;;;12.45;31.09
76519;BME280;67029;51.054;13.798;2023-04-03T12:30:18;101620.66;;;12.40;30.60
76519;BME280;67029;51.054;13.798;2023-04-03T12:32:51;101616.10;;;12.37;30.52
76519;BME280;67029;51.054;13.798;2023-04-03T12:35:35;101617.20;;;12.37;30.80
76519;BME280;67029;51.054;13.798;2023-04-03T12:40:28;101612.88;;;12.31;30.23
76519;BME280;67029;51.054;13.798;2023-04-03T12:45:23;101619.22;;;12.20;30.85
76519;BME280;67029;51.054;13.798;2023-04-03T12:47:52;101618.11;;;12.16;31.05
76519;BME280;67029;51.054;13.798;2023-04-03T12:50:31;101615.06;;;12.15;31.18
76519;BME280;67029;51.054;13.798;2023-04-03T12:53:06;101620.06;;;12.13;30.80
76519;BME280;67029;51.054;13.798;2023-04-03T12:55:20;101621.50;;;12.07;31.22
76519;BME280;67029;51.054;13.798;2023-04-03T12:57:48;101621.27;;;12.06;31.39
76519;BME280;67029;51.054;13.798;2023-04-03T13:00:25;101621.41;;;12.02;31.68
76519;BME280;67029;51.054;13.798;2023-04-03T13:02:49;101621.58;;;12.03;31.82
76519;BME280;67029;51.054;13.798;2023-04-03T13:05:21;101618.29;;;12.04;32.13
76519;BME280;67029;51.054;13.798;2023-04-03T13:08:01;101619.46;;;12.05;31.89
76519;BME280;67029;51.054;13.798;2023-04-03T13:10:20;101621.41;;;11.99;32.03
76519;BME280;67029;51.054;13.798;2023-04-03T13:12:58;101624.95;;;11.99;32.07
76519;BME280;67029;51.054;13.798;2023-04-03T13:15:24;101619.03;;;11.92;32.06
76519;BME280;67029;51.054;13.798;2023-04-03T13:17:52;101624.19;;;11.93;32.07
76519;BME280;67029;51.054;13.798;2023-04-03T13:20:30;101618.77;;;11.91;32.08
76519;BME280;67029;51.054;13.798;2023-04-03T13:22:55;101619.36;;;11.99;32.43
76519;BME280;67029;51.054;13.798;2023-04-03T13:25:24;101620.13;;;12.08;31.73
76519;BME280;67029;51.054;13.798;2023-04-03T13:27:54;101617.59;;;12.18;32.32
76519;BME280;67029;51.054;13.798;2023-04-03T13:30:31;101614.91;;;12.29;31.69
76519;BME280;67029;51.054;13.798;2023-04-03T13:32:58;101608.70;;;12.32;31.60
76519;BME280;67029;51.054;13.798;2023-04-03T13:35:37;101612.86;;;12.38;30.86
76519;BME280;67029;51.054;13.798;2023-04-03T13:37:58;101613.05;;;12.35;31.22
76519;BME280;67029;51.054;13.798;2023-04-03T13:40:26;101609.64;;;12.36;31.68
76519;BME280;67029;51.054;13.798;2023-04-03T13:43:01;101614.40;;;12.35;31.83
76519;BME280;67029;51.054;13.798;2023-04-03T13:45:29;101609.22;;;12.36;31.66
76519;BME280;67029;51.054;13.798;2023-04-03T13:48:09;101612.88;;;12.29;31.68
76519;BME280;67029;51.054;13.798;2023-04-03T13:50:27;101607.11;;;12.17;31.59
76519;BME280;67029;51.054;13.798;2023-04-03T13:53:08;101608.44;;;12.03;31.95
76519;BME280;67029;51.054;13.798;2023-04-03T13:55:32;101601.01;;;11.99;31.38
76519;BME280;67029;51.054;13.798;2023-04-03T13:58:01;101598.10;;;11.90;31.41
76519;BME280;67029;51.054;13.798;2023-04-03T14:00:51;101599.88;;;11.93;31.87
76519;BME280;67029;51.054;13.798;2023-04-03T14:03:00;101589.55;;;12.07;32.29